Time;durP1;ratioP1;P1;durP2;ratioP2;P2;SDS_P1;SDS_P2;PMS_P1;PMS_P2;Temp;Humidity;BMP_temperature;BMP_pressure;BME280_temperature;BME280_humidity;BME280_pressure;Samples;Min_cycle;Max_cycle;Signal;HPM_P1;HPM_P2
2022/05/06 00:01:52;;;;;;;6.72;4.65;;;;;;;21.58;40.75;102442.13;5093433;28;20054;-60
2022/05/06 00:04:18;;;;;;;6.65;4.68;;;;;;;21.56;40.92;102442.22;5094532;28;20020;-60
2022/05/06 00:06:43;;;;;;;6.70;4.85;;;;;;;21.54;41.06;102431.72;5094292;28;20039;-60
2022/05/06 00:09:09;;;;;;;7.82;5.05;;;;;;;21.53;40.92;102434.47;5093455;28;20032;-60
2022/05/06 00:11:34;;;;;;;6.85;4.90;;;;;;;21.53;41.10;102437.13;5094106;28;20027;-60
2022/05/06 00:14:00;;;;;;;6.77;4.60;;;;;;;21.53;41.18;102435.31;5093886;28;20048;-60
2022/05/06 00:16:26;;;;;;;6.80;5.00;;;;;;;21.51;41.08;102441.72;5093571;28;20355;-60
2022/05/06 00:18:53;;;;;;;7.07;4.75;;;;;;;21.51;40.93;102439.06;5093728;28;20031;-60
2022/05/06 00:21:19;;;;;;;6.95;4.45;;;;;;;21.50;41.10;102443.50;5094118;28;20060;-60
2022/05/06 00:23:44;;;;;;;6.78;4.40;;;;;;;21.50;41.11;102446.16;5093458;28;20536;-60
2022/05/06 00:26:09;;;;;;;6.82;4.60;;;;;;;21.48;40.72;102441.91;5093836;28;20023;-60
2022/05/06 00:28:36;;;;;;;6.38;4.53;;;;;;;21.47;40.96;102445.50;5094080;28;20024;-60
2022/05/06 00:31:02;;;;;;;7.40;4.50;;;;;;;21.47;40.99;102443.69;5092681;28;20047;-60
2022/05/06 00:33:31;;;;;;;6.68;4.50;;;;;;;21.45;41.06;102445.59;5093860;28;20036;-60
2022/05/06 00:35:58;;;;;;;7.85;4.70;;;;;;;21.45;40.83;102444.75;5093461;28;20042;-60
2022/05/06 00:38:27;;;;;;;7.18;4.72;;;;;;;21.45;40.72;102447.41;5092934;28;20472;-60
2022/05/06 00:40:53;;;;;;;5.90;4.47;;;;;;;21.44;40.91;102446.53;5093634;28;20028;-60
2022/05/06 00:43:20;;;;;;;6.07;4.30;;;;;;;21.45;40.96;102444.75;5093765;28;20546;-61
2022/05/06 00:46:14;;;;;;;5.85;4.28;;;;;;;21.43;40.74;102438.69;5093151;28;20035;-60
2022/05/06 00:48:42;;;;;;;6.85;4.55;;;;;;;21.41;40.86;102437.97;5091713;28;20036;-60
2022/05/06 00:51:08;;;;;;;6.72;4.75;;;;;;;21.42;40.96;102439.69;5092674;28;20031;-60
2022/05/06 00:53:36;;;;;;;7.63;4.72;;;;;;;21.40;40.89;102437.13;5093616;28;20019;-60
2022/05/06 00:56:04;;;;;;;6.57;4.50;;;;;;;21.40;40.74;102436.28;5093240;28;20031;-60
2022/05/06 00:58:31;;;;;;;6.43;4.60;;;;;;;21.39;40.97;102440.72;5092800;28;20019;-60
2022/05/06 01:00:56;;;;;;;6.72;4.35;;;;;;;21.39;40.77;102440.72;5093165;28;20024;-59
2022/05/06 01:03:22;;;;;;;6.45;4.35;;;;;;;21.36;40.86;102441.81;5093617;28;20020;-60
2022/05/06 01:05:49;;;;;;;6.03;4.05;;;;;;;21.35;40.76;102442.75;5092718;28;20024;-60
2022/05/06 01:08:16;;;;;;;7.68;4.80;;;;;;;21.35;40.72;102447.22;5093432;28;20403;-60
2022/05/06 01:10:42;;;;;;;7.45;4.60;;;;;;;21.35;40.75;102447.22;5093346;28;20073;-60
2022/05/06 01:13:07;;;;;;;8.13;4.75;;;;;;;21.34;40.79;102448.16;5091966;28;20452;-60
2022/05/06 01:15:33;;;;;;;6.87;4.60;;;;;;;21.34;40.69;102448.16;5093096;28;20500;-60
2022/05/06 01:17:58;;;;;;;6.83;4.43;;;;;;;21.34;40.66;102445.50;5093010;28;20317;-60
2022/05/06 01:20:25;;;;;;;7.80;5.05;;;;;;;21.33;40.76;102438.50;5092376;28;20367;-60
2022/05/06 01:22:52;;;;;;;7.15;4.40;;;;;;;21.31;40.75;102443.91;5092551;28;20038;-60
2022/05/06 01:25:18;;;;;;;6.25;4.20;;;;;;;21.30;40.82;102444.88;5092603;28;20062;-59
2022/05/06 01:27:53;;;;;;;6.68;4.32;;;;;;;21.30;40.52;102444.00;5092262;28;20096;-60
2022/05/06 01:30:29;;;;;;;7.03;4.45;;;;;;;21.29;40.64;102448.47;5093313;28;20028;-59
2022/05/06 01:32:54;;;;;;;6.55;3.83;;;;;;;21.28;40.65;102445.94;5092918;28;20066;-59
2022/05/06 01:35:22;;;;;;;7.57;4.75;;;;;;;21.27;40.60;102441.56;5092213;28;20096;-60
2022/05/06 01:37:51;;;;;;;7.80;4.68;;;;;;;21.24;40.53;102442.66;5092952;28;20028;-60
2022/05/06 01:40:20;;;;;;;6.70;4.80;;;;;;;21.23;40.58;102445.41;5092124;28;20036;-59
2022/05/06 01:42:46;;;;;;;7.00;4.53;;;;;;;21.23;40.62;102445.41;5092767;28;20028;-59
2022/05/06 01:45:15;;;;;;;6.20;4.30;;;;;;;21.23;40.62;102451.56;5092631;28;20107;-60
2022/05/06 01:47:42;;;;;;;6.30;4.35;;;;;;;21.22;40.52;102449.00;5092170;28;20016;-60
2022/05/06 01:50:09;;;;;;;6.20;4.10;;;;;;;21.22;40.47;102449.00;5092495;28;20111;-61
2022/05/06 01:52:37;;;;;;;6.53;4.78;;;;;;;21.22;40.73;102446.34;5092698;28;20402;-61
2022/05/06 01:55:04;;;;;;;6.65;4.50;;;;;;;21.21;40.52;102442.88;5091580;28;20035;-61
2022/05/06 01:57:29;;;;;;;7.32;4.82;;;;;;;21.22;40.53;102443.72;5092706;28;20025;-61
2022/05/06 01:59:54;;;;;;;7.85;4.38;;;;;;;21.21;40.62;102450.81;5092468;28;20077;-60
2022/05/06 02:02:21;;;;;;;8.43;4.80;;;;;;;21.20;40.73;102451.75;5091777;28;20055;-59
2022/05/06 02:07:30;;;;;;;7.35;4.53;;;;;;;21.15;40.70;102444.13;5092545;28;20494;-60
2022/05/06 02:09:57;;;;;;;6.53;4.57;;;;;;;21.18;40.67;102445.72;5091709;28;20028;-61
2022/05/06 02:12:22;;;;;;;5.95;4.20;;;;;;;21.18;40.59;102443.06;5092539;28;20276;-60
2022/05/06 02:14:47;;;;;;;6.95;4.75;;;;;;;21.17;40.62;102444.03;5092715;28;20035;-60
2022/05/06 02:17:13;;;;;;;6.47;4.70;;;;;;;21.17;40.44;102444.03;5091499;28;20439;-60
2022/05/06 02:19:38;;;;;;;7.00;4.88;;;;;;;21.18;40.51;102445.72;5092696;28;20036;-59
2022/05/06 02:22:03;;;;;;;6.83;4.80;;;;;;;21.16;40.58;102448.50;5092114;28;20024;-60
2022/05/06 02:24:31;;;;;;;7.20;4.35;;;;;;;21.16;40.62;102445.00;5091832;28;20364;-60
2022/05/06 02:26:56;;;;;;;7.18;4.70;;;;;;;21.14;40.44;102442.44;5092206;28;20028;-61
2022/05/06 02:29:21;;;;;;;6.37;4.30;;;;;;;21.13;40.72;102448.69;5092350;28;20031;-60
2022/05/06 02:34:30;;;;;;;6.70;4.10;;;;;;;21.14;40.53;102453.06;5092889;28;20260;-60
2022/05/06 02:36:55;;;;;;;6.37;4.37;;;;;;;21.13;40.54;102448.69;5095035;28;20020;-60
2022/05/06 02:39:20;;;;;;;7.25;4.47;;;;;;;21.12;40.63;102452.28;5096154;28;20291;-60
2022/05/06 02:41:48;;;;;;;6.40;4.80;;;;;;;21.12;40.39;102456.75;5096148;28;20028;-60
2022/05/06 02:44:14;;;;;;;6.18;4.03;;;;;;;21.10;40.56;102459.50;5095338;28;20024;-60
2022/05/06 02:46:42;;;;;;;6.00;4.05;;;;;;;21.08;40.74;102457.91;5096063;28;20490;-60
2022/05/06 02:49:07;;;;;;;6.90;4.68;;;;;;;21.08;40.53;102460.56;5095823;28;20478;-61
2022/05/06 02:51:33;;;;;;;6.60;4.75;;;;;;;21.07;40.67;102467.66;5095041;28;20058;-61
2022/05/06 02:53:58;;;;;;;6.07;4.20;;;;;;;21.06;40.77;102465.13;5095648;28;20107;-61
2022/05/06 02:56:24;;;;;;;6.15;4.15;;;;;;;21.08;40.50;102471.16;5095851;28;20058;-61
2022/05/06 02:58:50;;;;;;;5.53;3.80;;;;;;;21.08;40.55;102463.22;5094385;28;20050;-61
2022/05/06 03:01:15;;;;;;;6.40;4.20;;;;;;;21.05;40.62;102458.16;5095201;28;20016;-61
2022/05/06 03:03:41;;;;;;;7.25;4.25;;;;;;;21.07;40.51;102461.53;5095269;28;20067;-61
2022/05/06 03:06:06;;;;;;;5.55;3.95;;;;;;;21.07;40.57;102458.88;5093521;28;20123;-61
2022/05/06 03:08:31;;;;;;;6.07;3.97;;;;;;;21.06;40.49;102465.13;5095286;28;20020;-61
2022/05/06 03:10:58;;;;;;;6.13;4.43;;;;;;;21.06;40.43;102458.03;5094733;28;20280;-60
2022/05/06 03:13:24;;;;;;;6.10;4.18;;;;;;;21.05;40.64;102466.94;5094064;28;20285;-60
2022/05/06 03:15:49;;;;;;;6.37;4.50;;;;;;;21.04;40.59;102459.09;5094661;28;20032;-60
2022/05/06 03:18:14;;;;;;;6.07;3.97;;;;;;;21.02;40.51;102454.72;5094868;28;20305;-60
2022/05/06 03:20:39;;;;;;;6.60;4.40;;;;;;;21.04;40.52;102451.97;5093942;28;20082;-60
2022/05/06 03:23:06;;;;;;;5.63;3.80;;;;;;;21.02;40.37;102454.72;5094711;28;20062;-60
2022/05/06 03:25:31;;;;;;;5.95;4.15;;;;;;;21.01;40.47;102449.53;5094873;28;20032;-60
2022/05/06 03:27:59;;;;;;;6.30;4.00;;;;;;;21.00;40.34;102455.81;5093670;28;20031;-60
2022/05/06 03:30:26;;;;;;;6.43;4.20;;;;;;;21.00;40.47;102448.69;5094772;28;20102;-60
2022/05/06 03:32:55;;;;;;;5.60;3.53;;;;;;;20.99;40.54;102454.94;5093702;28;20441;-60
2022/05/06 03:35:21;;;;;;;5.78;3.97;;;;;;;20.98;40.54;102453.25;5094543;28;20035;-61
2022/05/06 03:37:46;;;;;;;6.00;3.63;;;;;;;21.00;40.41;102453.16;5094848;28;20024;-61
2022/05/06 03:40:15;;;;;;;5.30;3.85;;;;;;;21.00;40.52;102455.81;5093601;28;20482;-61
2022/05/06 03:42:40;;;;;;;5.18;3.67;;;;;;;20.99;40.50;102462.88;5094438;28;20563;-61
2022/05/06 03:45:07;;;;;;;5.88;3.58;;;;;;;20.98;40.44;102461.22;5094172;28;20106;-61
2022/05/06 03:47:32;;;;;;;5.32;3.30;;;;;;;20.98;40.53;102460.34;5092798;28;20028;-61
2022/05/06 03:52:41;;;;;;;6.07;3.55;;;;;;;20.95;40.16;102456.13;5094350;28;20050;-61
2022/05/06 03:55:07;;;;;;;5.40;3.40;;;;;;;20.96;40.40;102456.94;5093227;28;20032;-60
2022/05/06 03:57:32;;;;;;;5.72;3.45;;;;;;;20.96;40.42;102459.59;5094085;28;20073;-61
2022/05/06 03:59:58;;;;;;;5.15;3.53;;;;;;;20.95;40.49;102463.19;5093705;28;20036;-60
2022/05/06 04:02:23;;;;;;;5.63;3.47;;;;;;;20.94;40.38;102456.22;5093191;28;20046;-61
2022/05/06 04:04:48;;;;;;;5.60;3.70;;;;;;;20.93;40.50;102463.28;5093872;28;20300;-61
2022/05/06 04:07:16;;;;;;;4.70;3.27;;;;;;;20.93;40.60;102463.28;5094103;28;20268;-61
2022/05/06 04:09:41;;;;;;;4.78;3.17;;;;;;;20.93;40.41;102457.16;5093047;28;20736;-61
2022/05/06 04:12:09;;;;;;;6.25;3.65;;;;;;;20.93;40.41;102463.28;5093542;28;20031;-60
2022/05/06 04:14:35;;;;;;;4.40;2.90;;;;;;;20.93;40.23;102468.59;5093617;28;20096;-60
2022/05/06 04:17:02;;;;;;;5.15;3.40;;;;;;;20.91;40.16;102467.03;5092776;28;20111;-61
2022/05/06 04:19:28;;;;;;;5.07;3.70;;;;;;;20.91;40.42;102470.50;5093687;28;20035;-59
2022/05/06 04:24:37;;;;;;;4.93;3.20;;;;;;;20.91;40.40;102464.38;5094033;28;20051;-61
2022/05/06 04:27:03;;;;;;;4.93;3.17;;;;;;;20.89;40.30;102466.28;5093149;28;20475;-60
2022/05/06 04:29:28;;;;;;;5.13;3.22;;;;;;;20.89;40.37;102466.28;5092913;28;20028;-61
2022/05/06 04:31:53;;;;;;;5.18;3.25;;;;;;;20.89;40.26;102474.25;5092970;28;20035;-60
2022/05/06 04:34:22;;;;;;;4.60;3.00;;;;;;;20.88;40.33;102475.19;5093726;28;20027;-60
2022/05/06 04:36:47;;;;;;;5.00;3.30;;;;;;;20.87;40.31;102474.34;5092731;28;20032;-60
2022/05/06 04:39:12;;;;;;;4.77;2.80;;;;;;;20.89;40.27;102476.88;5093052;28;20471;-60
2022/05/06 04:41:37;;;;;;;4.70;2.80;;;;;;;20.88;40.29;102478.66;5093145;28;20293;-60
2022/05/06 04:44:03;;;;;;;4.53;2.80;;;;;;;20.89;40.33;102482.19;5092093;28;20292;-60
2022/05/06 04:46:28;;;;;;;4.90;3.00;;;;;;;20.87;40.52;102482.28;5093468;28;20326;-60
2022/05/06 04:48:53;;;;;;;4.33;2.90;;;;;;;20.86;40.33;102483.22;5092858;28;20469;-60
2022/05/06 04:51:18;;;;;;;5.17;3.30;;;;;;;20.87;40.44;102484.94;5092267;28;20632;-60
2022/05/06 04:53:44;;;;;;;4.73;3.10;;;;;;;20.86;40.32;102488.53;5093066;28;20614;-60
2022/05/06 04:56:09;;;;;;;4.57;2.97;;;;;;;20.87;40.37;102489.38;5092647;28;20463;-60
2022/05/06 04:58:35;;;;;;;4.35;2.90;;;;;;;20.86;40.32;102491.19;5092078;28;20047;-60
2022/05/06 05:01:00;;;;;;;4.13;2.72;;;;;;;20.87;40.48;102492.03;5092542;28;20062;-60
2022/05/06 05:03:25;;;;;;;4.57;2.90;;;;;;;20.87;40.30;102494.66;5092855;28;20048;-60
2022/05/06 05:05:50;;;;;;;5.20;3.10;;;;;;;20.89;40.22;102504.22;5091772;28;20042;-59
2022/05/06 05:08:16;;;;;;;4.20;2.67;;;;;;;20.89;40.44;102506.03;5092637;28;20269;-59
2022/05/06 05:10:41;;;;;;;4.87;3.00;;;;;;;20.87;40.44;102498.19;5092830;28;20520;-60
2022/05/06 05:13:06;;;;;;;4.80;3.30;;;;;;;20.87;40.53;102502.63;5091323;28;20304;-59
2022/05/06 05:15:32;;;;;;;4.93;3.15;;;;;;;20.86;40.39;102514.19;5092637;28;20291;-59
2022/05/06 05:18:00;;;;;;;4.30;2.65;;;;;;;20.85;40.45;102515.97;5092348;28;20020;-59
2022/05/06 05:20:25;;;;;;;4.63;2.90;;;;;;;20.84;40.53;102514.28;5091708;28;20543;-60
2022/05/06 05:22:50;;;;;;;4.30;2.45;;;;;;;20.82;40.56;102509.09;5092068;28;20111;-59
2022/05/06 05:25:16;;;;;;;4.25;2.60;;;;;;;20.83;40.48;102516.06;5092520;28;20095;-60
2022/05/06 05:27:41;;;;;;;4.03;2.50;;;;;;;20.83;40.65;102521.38;5091660;28;20020;-59
2022/05/06 05:30:09;;;;;;;4.50;2.38;;;;;;;20.84;40.75;102519.59;5092384;28;20051;-60
2022/05/06 05:32:34;;;;;;;4.10;2.38;;;;;;;20.83;40.57;102515.22;5091396;28;20103;-60
2022/05/06 05:35:00;;;;;;;3.70;2.08;;;;;;;20.85;40.78;102513.31;5092084;28;20111;-61
2022/05/06 05:37:25;;;;;;;3.92;2.20;;;;;;;20.85;41.00;102513.31;5092350;28;20361;-61
2022/05/06 05:39:51;;;;;;;3.65;2.00;;;;;;;20.88;40.65;102510.47;5091366;28;20058;-60
2022/05/06 05:42:24;;;;;;;3.25;1.90;;;;;;;20.90;40.76;102518.31;5092246;28;20028;-60
2022/05/06 05:50:18;;;;;;;3.65;2.30;;;;;;;20.95;40.90;102517.06;5092490;28;20132;-60
2022/05/06 05:52:43;;;;;;;3.80;2.10;;;;;;;20.99;40.67;102521.19;5091963;28;20028;-60
2022/05/06 05:55:08;;;;;;;4.10;2.22;;;;;;;21.01;40.63;102521.97;5091360;28;20480;-60
2022/05/06 05:57:34;;;;;;;4.35;2.55;;;;;;;21.02;40.49;102509.56;5092306;28;20480;-59
2022/05/06 05:59:59;;;;;;;4.20;2.50;;;;;;;21.04;40.63;102522.69;5092068;28;20028;-60
2022/05/06 06:02:25;;;;;;;4.88;3.47;;;;;;;21.08;40.46;102518.88;5091347;28;20767;-61
2022/05/06 06:04:51;;;;;;;5.53;3.03;;;;;;;21.09;40.55;102523.22;5091994;28;20027;-63
2022/05/06 06:07:18;;;;;;;4.40;2.50;;;;;;;21.08;40.39;102521.53;5092076;28;20020;-59
2022/05/06 06:09:43;;;;;;;5.68;2.55;;;;;;;21.06;40.60;102515.47;5092185;28;20104;-59
2022/05/06 06:12:09;;;;;;;4.30;2.53;;;;;;;21.06;40.82;102524.31;5095956;28;20448;-58
2022/05/06 06:14:34;;;;;;;6.43;3.00;;;;;;;21.05;41.21;102514.66;5095341;28;20291;-58
2022/05/06 06:16:59;;;;;;;5.70;3.40;;;;;;;21.05;40.94;102509.34;5095421;28;20020;-59
2022/05/06 06:19:24;;;;;;;5.17;3.27;;;;;;;21.05;41.19;102511.16;5095866;28;20433;-59
2022/05/06 06:21:50;;;;;;;4.35;2.63;;;;;;;21.05;41.21;102511.16;5094910;28;20111;-59
2022/05/06 06:24:15;;;;;;;5.70;2.70;;;;;;;21.06;41.49;102513.69;5095641;28;20055;-60
2022/05/06 06:26:40;;;;;;;7.50;3.05;;;;;;;21.07;41.36;102512.72;5095956;28;20272;-60
2022/05/06 06:29:06;;;;;;;4.88;2.83;;;;;;;21.10;41.32;102514.34;5094836;28;20081;-60
2022/05/06 06:31:32;;;;;;;4.63;2.80;;;;;;;21.11;41.45;102516.00;5095703;28;20024;-59
2022/05/06 06:33:58;;;;;;;5.00;2.95;;;;;;;21.13;41.39;102508.84;5095367;28;20045;-59
2022/05/06 06:36:24;;;;;;;5.35;3.08;;;;;;;21.15;41.69;102512.22;5094814;28;20027;-60
2022/05/06 06:38:53;;;;;;;6.35;3.20;;;;;;;21.16;41.68;102511.28;5095277;28;20100;-60
2022/05/06 06:41:25;;;;;;;5.57;3.40;;;;;;;21.13;41.83;102504.38;5095753;28;20431;-60
2022/05/06 06:43:51;;;;;;;5.18;3.30;;;;;;;21.15;41.76;102513.06;5094608;28;20024;-60
2022/05/06 06:46:16;;;;;;;9.73;5.15;;;;;;;21.15;42.12;102513.06;5095709;28;20020;-60
2022/05/06 06:48:43;;;;;;;7.10;4.57;;;;;;;21.13;42.03;102514.13;5095283;28;20059;-61
2022/05/06 06:51:09;;;;;;;5.97;3.80;;;;;;;21.13;42.21;102516.78;5094515;28;20999;-60
2022/05/06 06:53:35;;;;;;;5.80;3.40;;;;;;;21.13;42.11;102520.28;5095412;28;20088;-60
2022/05/06 06:56:00;;;;;;;5.30;3.38;;;;;;;21.14;42.10;102518.47;5095144;28;20107;-60
2022/05/06 06:58:25;;;;;;;5.47;3.67;;;;;;;21.16;42.14;102522.72;5094612;28;20087;-60
2022/05/06 07:00:54;;;;;;;5.28;3.45;;;;;;;21.18;42.07;102530.56;5095063;28;20296;-60
2022/05/06 07:03:20;;;;;;;5.60;4.05;;;;;;;21.17;41.98;102542.13;5095125;28;20161;-60
2022/05/06 07:13:58;;;;;;;7.03;4.53;;;;;;;21.14;42.30;102545.84;5094957;28;20051;-60
2022/05/06 07:16:24;;;;;;;6.67;4.10;;;;;;;21.13;42.54;102545.94;5097574;28;20032;-62
2022/05/06 07:18:50;;;;;;;6.35;3.63;;;;;;;21.13;42.47;102540.63;5094245;28;20276;-62
2022/05/06 07:21:16;;;;;;;5.43;3.53;;;;;;;21.15;42.64;102546.69;5094252;28;20495;-61
2022/05/06 07:23:41;;;;;;;6.78;4.00;;;;;;;21.15;42.68;102546.69;5095527;28;20024;-60
2022/05/06 07:26:06;;;;;;;9.00;3.70;;;;;;;21.20;42.72;102547.22;5094003;28;20129;-60
2022/05/06 07:28:31;;;;;;;5.57;3.30;;;;;;;21.20;42.56;102550.72;5094653;28;20385;-61
2022/05/06 07:30:56;;;;;;;6.10;3.30;;;;;;;21.26;42.50;102560.06;5094668;28;20032;-61
2022/05/06 07:33:22;;;;;;;6.60;3.57;;;;;;;21.28;42.44;102563.44;5094053;28;20036;-60
2022/05/06 07:35:47;;;;;;;6.20;3.08;;;;;;;21.28;42.64;102565.25;5094502;28;20032;-70
2022/05/06 07:38:12;;;;;;;11.50;6.77;;;;;;;21.24;42.83;102574.34;5094341;28;20099;-58
2022/05/06 07:40:40;;;;;;;7.43;5.13;;;;;;;21.22;42.88;102568.31;5093687;28;20828;-59
2022/05/06 07:43:06;;;;;;;6.55;4.22;;;;;;;21.23;43.26;102575.31;5094121;28;20268;-59
2022/05/06 07:45:32;;;;;;;6.80;4.60;;;;;;;21.23;42.97;102576.16;5094528;28;20027;-60
2022/05/06 07:48:08;;;;;;;7.22;5.13;;;;;;;21.20;43.05;102579.03;5093453;28;20283;-60
2022/05/06 07:50:34;;;;;;;6.63;4.25;;;;;;;21.20;43.22;102584.31;5094383;28;20081;-60
2022/05/06 07:52:59;;;;;;;6.18;4.03;;;;;;;21.21;43.39;102583.38;5094041;28;20024;-59
2022/05/06 07:55:25;;;;;;;12.73;6.80;;;;;;;21.22;43.06;102576.28;5093644;28;20024;-58
2022/05/06 07:57:50;;;;;;;9.88;5.70;;;;;;;21.22;43.25;102587.75;5094113;28;20098;-59
2022/05/06 08:00:19;;;;;;;9.38;4.50;;;;;;;21.25;43.36;102582.22;5093757;28;20028;-58
2022/05/06 08:05:28;;;;;;;8.30;4.97;;;;;;;21.29;43.55;102586.38;5094497;28;20039;-57
2022/05/06 08:07:55;;;;;;;13.43;8.52;;;;;;;21.24;43.33;102583.19;5092815;28;20024;-58
2022/05/06 08:10:20;;;;;;;13.68;7.22;;;;;;;21.20;43.92;102592.28;5094028;28;20365;-58
2022/05/06 08:12:46;;;;;;;10.07;5.65;;;;;;;21.22;44.19;102594.84;5093581;28;20496;-58
2022/05/06 08:15:15;;;;;;;11.13;5.80;;;;;;;21.24;44.60;102598.22;5092692;28;20495;-57
2022/05/06 08:17:40;;;;;;;11.30;5.85;;;;;;;21.25;44.46;102597.28;5093839;28;20024;-58
2022/05/06 08:20:08;;;;;;;9.00;5.25;;;;;;;21.32;44.55;102596.78;5093862;28;20024;-61
2022/05/06 08:22:34;;;;;;;9.25;5.25;;;;;;;21.39;44.38;102597.19;5093483;28;20035;-61
2022/05/06 08:25:00;;;;;;;9.68;6.13;;;;;;;21.40;44.08;102590.09;5093579;28;20028;-60
2022/05/06 08:27:25;;;;;;;11.60;5.60;;;;;;;21.37;44.28;102589.34;5094198;28;20126;-60
2022/05/06 08:29:51;;;;;;;13.02;7.68;;;;;;;21.35;43.84;102587.75;5092978;28;20408;-60
2022/05/06 08:32:17;;;;;;;9.82;6.70;;;;;;;21.31;44.00;102587.09;5093604;28;20024;-59
2022/05/06 08:34:43;;;;;;;11.18;6.13;;;;;;;21.31;44.17;102581.81;5093607;28;20023;-59
2022/05/06 08:37:09;;;;;;;11.60;5.70;;;;;;;21.30;44.02;102572.16;5092629;28;20502;-59
2022/05/06 08:39:34;;;;;;;7.93;5.33;;;;;;;21.32;43.95;102578.19;5093556;28;20046;-58
2022/05/06 08:42:01;;;;;;;8.67;5.70;;;;;;;21.34;43.77;102573.63;5093247;28;20032;-58
2022/05/06 08:53:05;;;;;;;8.98;5.30;;;;;;;21.40;43.41;102568.91;5051121;28;20132;-59
2022/05/06 08:55:30;;;;;;;10.57;5.40;;;;;;;21.40;43.54;102567.09;5085461;28;20040;-59
2022/05/06 08:57:55;;;;;;;8.83;5.00;;;;;;;21.45;43.81;102566.78;5093185;28;20039;-60
2022/05/06 09:00:25;;;;;;;9.70;7.10;;;;;;;21.46;43.98;102564.00;5093767;28;20764;-60
2022/05/06 09:02:56;;;;;;;9.65;5.80;;;;;;;21.51;43.68;102561.91;5093322;28;20028;-60
2022/05/06 09:05:22;;;;;;;9.63;5.43;;;;;;;21.60;43.71;102570.19;5093118;28;20023;-60
2022/05/06 09:08:02;;;;;;;11.32;5.90;;;;;;;21.65;43.74;102560.09;5093512;28;20056;-60
2022/05/06 09:10:28;;;;;;;8.23;5.35;;;;;;;21.70;43.59;102563.31;5093660;28;20047;-60
2022/05/06 09:12:56;;;;;;;8.60;5.72;;;;;;;21.75;43.48;102561.19;5092859;28;20437;-60
2022/05/06 09:18:07;;;;;;;9.52;6.00;;;;;;;21.77;43.41;102555.75;5092970;28;20075;-59
2022/05/06 09:20:33;;;;;;;9.10;4.75;;;;;;;21.80;43.52;102552.91;5092805;28;20020;-60
2022/05/06 09:22:58;;;;;;;9.00;5.25;;;;;;;21.83;43.41;102550.03;5093173;28;20034;-60
2022/05/06 09:25:59;;;;;;;11.23;5.60;;;;;;;21.87;43.33;102548.84;5093328;28;20380;-61
2022/05/06 09:28:27;;;;;;;9.75;5.50;;;;;;;21.90;43.24;102545.97;5093739;28;20030;-60
2022/05/06 09:31:09;;;;;;;8.63;4.90;;;;;;;21.89;43.57;102544.28;5092621;28;20028;-59
2022/05/06 09:33:36;;;;;;;7.95;4.95;;;;;;;21.88;43.55;102540.75;5091973;28;20499;-60
2022/05/06 09:36:25;;;;;;;9.15;5.80;;;;;;;21.83;43.04;102544.72;5092717;28;20039;-60
2022/05/06 09:39:04;;;;;;;9.23;5.25;;;;;;;21.81;43.10;102541.31;5092010;28;20334;-60
2022/05/06 09:41:30;;;;;;;7.15;4.82;;;;;;;21.87;43.08;102543.53;5093044;28;20028;-62
2022/05/06 09:44:00;;;;;;;9.13;4.78;;;;;;;21.90;43.03;102535.34;5093152;28;20528;-60
2022/05/06 09:46:25;;;;;;;7.60;5.45;;;;;;;21.86;43.24;102541.84;5091829;28;20069;-61
2022/05/06 09:48:58;;;;;;;9.73;5.97;;;;;;;21.84;43.28;102538.44;5093145;28;20028;-59
2022/05/06 09:51:34;;;;;;;8.07;5.60;;;;;;;21.81;42.83;102536.88;5093061;28;20028;-59
2022/05/06 09:54:05;;;;;;;9.73;5.65;;;;;;;21.76;43.17;102533.66;5092037;28;20023;-62
2022/05/06 09:56:31;;;;;;;8.15;5.00;;;;;;;21.78;43.53;102539.72;5093522;28;20025;-60
2022/05/06 09:58:57;;;;;;;8.80;5.38;;;;;;;21.78;43.13;102536.22;5093219;28;20437;-61
2022/05/06 10:01:22;;;;;;;8.05;5.30;;;;;;;21.79;43.18;102535.25;5092189;28;20032;-59
2022/05/06 10:03:50;;;;;;;7.45;4.93;;;;;;;21.77;43.08;102539.84;5092963;28;20059;-59
2022/05/06 10:06:16;;;;;;;7.35;4.85;;;;;;;21.76;43.15;102532.81;5092780;28;20028;-60
2022/05/06 10:08:46;;;;;;;6.40;4.20;;;;;;;21.76;42.89;102540.78;5091759;28;20387;-59
2022/05/06 10:11:14;;;;;;;7.15;4.75;;;;;;;21.80;43.10;102539.63;5092553;28;20028;-59
2022/05/06 10:13:44;;;;;;;8.52;5.63;;;;;;;21.80;42.81;102534.31;5092283;28;20036;-58
2022/05/06 10:16:10;;;;;;;8.15;5.70;;;;;;;21.77;42.72;102526.56;5092014;28;20464;-59
2022/05/06 10:18:41;;;;;;;9.45;5.47;;;;;;;21.73;42.88;102521.47;5092605;28;20103;-59
2022/05/06 10:21:16;;;;;;;10.07;6.95;;;;;;;21.70;42.99;102520.84;5091463;28;20020;-59
2022/05/06 10:23:55;;;;;;;15.45;12.88;;;;;;;21.67;42.96;102516.59;5092999;28;20107;-60
2022/05/06 10:26:33;;;;;;;25.48;19.08;;;;;;;21.69;43.14;102513.84;5093626;28;20024;-60
2022/05/06 10:34:33;;;;;;;24.33;18.95;;;;;;;21.77;42.96;102518.59;5092637;28;20074;-59
2022/05/06 10:37:01;;;;;;;21.10;17.58;;;;;;;21.81;42.74;102514.75;5091241;28;20085;-60
2022/05/06 10:39:33;;;;;;;22.17;17.63;;;;;;;21.84;42.64;102511.91;5092241;28;20031;-59
2022/05/06 10:42:08;;;;;;;20.42;16.42;;;;;;;21.86;42.59;102513.50;5091203;28;20035;-60
2022/05/06 10:44:38;;;;;;;19.55;16.20;;;;;;;21.88;42.45;102510.72;5092293;28;20055;-59
2022/05/06 10:47:55;;;;;;;20.42;15.60;;;;;;;21.88;42.57;102500.94;5091975;28;20113;-60
2022/05/06 10:50:23;;;;;;;18.92;14.77;;;;;;;21.90;42.22;102500.84;5057443;28;20490;-60
2022/05/06 10:52:49;;;;;;;18.85;15.57;;;;;;;21.89;42.28;102489.38;5091404;28;20024;-60
2022/05/06 10:55:16;;;;;;;18.23;14.40;;;;;;;21.91;42.17;102491.94;5092086;28;20072;-59
2022/05/06 10:57:52;;;;;;;16.40;12.95;;;;;;;21.92;41.98;102496.25;5094711;28;20016;-59
2022/05/06 11:00:19;;;;;;;16.30;13.35;;;;;;;21.92;41.98;102498.91;5095536;28;20383;-59
2022/05/06 11:02:44;;;;;;;12.65;10.35;;;;;;;21.90;42.46;102495.53;5095935;28;20032;-59
2022/05/06 11:05:15;;;;;;;13.63;10.18;;;;;;;21.89;42.09;102494.69;5094289;28;20028;-59
2022/05/06 11:07:42;;;;;;;14.90;10.63;;;;;;;21.89;42.13;102493.84;5095759;28;20020;-60
2022/05/06 11:10:11;;;;;;;12.68;10.07;;;;;;;21.88;42.19;102494.81;5094576;28;20030;-60
2022/05/06 11:12:39;;;;;;;14.63;9.43;;;;;;;21.90;42.02;102484.91;5095323;28;20444;-61
2022/05/06 11:15:06;;;;;;;13.93;10.68;;;;;;;21.90;41.97;102490.22;5095987;28;20194;-58
2022/05/06 11:17:32;;;;;;;13.10;10.55;;;;;;;21.88;41.92;102482.38;5094743;28;20024;-60
2022/05/06 11:20:13;;;;;;;12.35;9.73;;;;;;;21.88;42.08;102476.22;5095049;28;20104;-65
2022/05/06 11:23:00;;;;;;;13.43;9.70;;;;;;;21.91;42.04;102482.16;5096340;28;20426;-62
2022/05/06 11:25:37;;;;;;;14.15;10.02;;;;;;;21.92;42.13;102472.38;5099493;28;20047;-61
2022/05/06 11:28:13;;;;;;;13.50;9.60;;;;;;;21.96;42.35;102470.38;5100272;28;20077;-62
2022/05/06 11:30:43;;;;;;;12.98;9.63;;;;;;;21.99;42.25;102470.16;5098000;28;20080;-59
2022/05/06 11:33:26;;;;;;;14.43;9.07;;;;;;;22.07;41.58;102465.97;5093610;28;20391;-61
2022/05/06 11:36:05;;;;;;;11.00;7.95;;;;;;;22.12;41.61;102457.66;5094507;28;20020;-62
2022/05/06 11:38:36;;;;;;;11.02;7.45;;;;;;;22.16;41.69;102460.94;5093700;28;20016;-60
2022/05/06 11:41:11;;;;;;;10.57;7.95;;;;;;;22.17;41.39;102465.28;5094419;28;20039;-59
2022/05/06 11:43:41;;;;;;;10.25;7.93;;;;;;;22.17;41.48;102452.03;5094668;28;20025;-61
2022/05/06 11:48:53;;;;;;;9.80;7.45;;;;;;;22.19;41.89;102453.63;5093985;28;20035;-59
2022/05/06 11:51:30;;;;;;;9.93;7.30;;;;;;;22.20;41.62;102449.16;5094560;28;20031;-59
2022/05/06 11:53:57;;;;;;;8.95;7.10;;;;;;;22.20;41.53;102447.31;5093255;28;20024;-60
2022/05/06 11:56:25;;;;;;;8.82;6.80;;;;;;;22.21;41.62;102445.53;5094315;28;20021;-60
2022/05/06 11:58:53;;;;;;;12.63;7.45;;;;;;;22.20;41.68;102443.84;5093812;28;20375;-62
2022/05/06 12:02:04;;;;;;;9.43;7.00;;;;;;;22.19;41.70;102450.09;5093698;28;20113;-62
2022/05/06 12:04:31;;;;;;;9.90;6.88;;;;;;;22.18;41.74;102446.59;5031855;28;20040;-62
2022/05/06 12:06:56;;;;;;;10.35;6.65;;;;;;;22.18;41.91;102441.28;5030618;28;20100;-63
2022/05/06 12:09:21;;;;;;;7.60;6.13;;;;;;;22.17;41.75;102425.47;5063415;28;20182;-60
2022/05/06 12:12:04;;;;;;;8.00;5.75;;;;;;;22.18;41.44;102432.47;5093930;28;20269;-61
2022/05/06 12:14:29;;;;;;;8.25;6.20;;;;;;;22.15;41.77;102427.41;5093088;28;20040;-62